SBOSBO VIE / LOWW
Speedbird OnlineSpeedbird Online VIE / LOWW

Vienna International Airport
01:35 10.9°C

Location Vienna, Austria
Latitude: 48.110298156738
Longitude: 16.569700241089
Local Time 01:35 on 28 Feb 2024
UTC +1 hours (Europe/Vienna)
Currency £1 equals EUR 1.17
METAR LOWW 280020Z 15006KT CAVOK 11/07 Q1014 NOSIG
TAF TAF LOWW 272315Z 2800/2906 14010KT CAVOK TX13/2813Z TN06/2905Z BECMG 2802/2804 14005KT FM280500 32006KT 5000 BR FEW006 SCT012 PROB30 TEMPO 2805/2808 BKN006 FM280900 33008KT 9999 BKN030 BECMG 2901/2903 VRB03KT PROB30 TEMPO 2901/2906 1200 BCFG
Weather As Of 28 Feb 2024 01:33
Description Clear sky
Wind 11 km/h from South-East (150°)
Cloud Cover 0%
Precipitation Rain: none, Snow: none
Sunrise 06:38
Sunset 17:34
NOTAM 16 active NOTAM
Rotations During the last 90 days there were
359 flights from LHR
367 flights to LHR
Lounges Vienna lounge, 2
Air Lounge TEMPORARILY CLOSED, Terminal 3
Sky Lounge , Terminal 3 / Level2
Web Airport Website | Wikipedia
Codes IATA: VIE
ICAO: LOWW
Altitude 183 Meter / 600 Feet
Distance 1,236 KM / 768 Miles
from London.
Runways
RunwayLength (m)Surface
113500Asphalt
163600Asphalt
293500Asphalt
343600Asphalt
Radio
TypeDescriptionFrequency
APPWIEN RADAR134.675
ATISATIS121.73
CLDWIEN CLNC DEL122.125
DIRDIRECTOR119.8
GNDWIEN GND121.6
INFOINFO118.525
RMPVIENNA ICE131.625
TWRWIEN TWR119.4
Live ATC



Support Speedbird Online

© 2017-2024 Speedbird Online